Time;durP1;ratioP1;P1;durP2;ratioP2;P2;SDS_P1;SDS_P2;PMS_P1;PMS_P2;Temp;Humidity;BMP_temperature;BMP_pressure;BME280_temperature;BME280_humidity;BME280_pressure;Samples;Min_cycle;Max_cycle;Signal;HPM_P1;HPM_P2
2023/10/25 00:00:34;;;;;;;21.98;13.95;;;7.30;99.90;;;;;;5033784;28;20498;-68
2023/10/25 00:02:59;;;;;;;27.05;15.90;;;7.30;99.90;;;;;;5033499;28;20069;-68
2023/10/25 00:05:31;;;;;;;30.33;17.98;;;7.30;99.90;;;;;;5033615;28;20033;-68
2023/10/25 00:07:56;;;;;;;33.47;19.80;;;7.30;99.90;;;;;;5032500;28;20041;-68
2023/10/25 00:10:22;;;;;;;29.73;18.83;;;7.20;99.90;;;;;;5033431;28;20116;-69
2023/10/25 00:12:48;;;;;;;36.22;20.65;;;7.30;99.90;;;;;;5033393;28;20025;-68
2023/10/25 00:15:14;;;;;;;33.90;18.83;;;7.30;99.90;;;;;;5035504;28;20044;-68
2023/10/25 00:17:40;;;;;;;29.67;18.88;;;7.30;99.90;;;;;;5036671;28;20037;-68
2023/10/25 00:20:07;;;;;;;32.58;18.35;;;7.40;99.90;;;;;;5036951;28;20033;-68
2023/10/25 00:22:32;;;;;;;23.90;15.35;;;7.50;99.90;;;;;;5036692;28;20030;-69
2023/10/25 00:24:58;;;;;;;29.05;16.10;;;7.50;99.90;;;;;;5036968;28;20353;-69
2023/10/25 00:27:23;;;;;;;28.80;16.42;;;7.50;99.90;;;;;;5036577;28;20507;-68
2023/10/25 00:29:49;;;;;;;24.23;15.07;;;7.50;99.90;;;;;;5036378;28;20029;-68
2023/10/25 00:32:14;;;;;;;22.42;13.38;;;7.50;99.90;;;;;;5036427;28;20061;-68
2023/10/25 00:34:40;;;;;;;23.73;13.90;;;7.50;99.90;;;;;;5036899;28;20064;-68
2023/10/25 00:37:06;;;;;;;24.05;14.43;;;7.50;99.90;;;;;;5036558;28;20032;-68
2023/10/25 00:39:31;;;;;;;23.83;13.80;;;7.50;99.90;;;;;;5036858;28;20033;-68
2023/10/25 00:41:57;;;;;;;21.70;13.63;;;7.50;99.90;;;;;;5036835;28;20030;-69
2023/10/25 00:44:22;;;;;;;24.05;14.05;;;7.50;99.90;;;;;;5036513;28;20037;-70
2023/10/25 00:46:48;;;;;;;31.15;16.33;;;7.50;99.90;;;;;;5036621;28;20037;-68
2023/10/25 00:49:14;;;;;;;25.85;15.50;;;7.50;99.90;;;;;;5036652;28;20040;-68
2023/10/25 00:51:40;;;;;;;21.95;13.25;;;7.60;99.90;;;;;;5036356;28;20029;-68
2023/10/25 00:54:05;;;;;;;23.23;13.52;;;7.60;99.90;;;;;;5036373;28;20029;-68
2023/10/25 00:56:33;;;;;;;20.73;12.63;;;7.60;99.90;;;;;;5036453;28;20028;-68
2023/10/25 00:58:59;;;;;;;23.88;11.88;;;7.60;99.90;;;;;;5035822;28;20033;-68
2023/10/25 01:01:27;;;;;;;18.73;10.52;;;7.60;99.90;;;;;;5036267;28;20026;-68
2023/10/25 01:03:53;;;;;;;17.48;10.85;;;7.60;99.90;;;;;;5036014;28;20112;-68
2023/10/25 01:06:19;;;;;;;19.73;11.82;;;7.60;99.90;;;;;;5035508;28;20537;-68
2023/10/25 01:08:45;;;;;;;21.15;11.38;;;7.60;99.90;;;;;;5036150;28;20112;-68
2023/10/25 01:11:11;;;;;;;20.02;10.80;;;7.60;99.90;;;;;;5035767;28;20026;-68
2023/10/25 01:13:37;;;;;;;15.88;9.35;;;7.60;99.90;;;;;;5036014;28;20025;-69
2023/10/25 01:16:03;;;;;;;19.45;10.70;;;7.50;99.90;;;;;;5035415;28;20083;-68
2023/10/25 01:18:29;;;;;;;16.92;10.43;;;7.50;99.90;;;;;;5035612;28;20399;-68
2023/10/25 01:20:55;;;;;;;15.30;9.45;;;7.50;99.90;;;;;;5035840;28;20037;-68
2023/10/25 01:23:20;;;;;;;20.95;11.77;;;7.40;99.90;;;;;;5035461;28;20112;-68
2023/10/25 01:25:46;;;;;;;21.95;13.23;;;7.40;99.90;;;;;;5035476;28;20025;-69
2023/10/25 01:28:12;;;;;;;21.13;12.25;;;7.30;99.90;;;;;;5035657;28;20451;-68
2023/10/25 01:30:39;;;;;;;28.17;12.70;;;7.30;99.90;;;;;;5035167;28;20025;-68
2023/10/25 01:33:05;;;;;;;20.17;11.52;;;7.30;99.90;;;;;;5035853;28;20029;-68
2023/10/25 01:35:31;;;;;;;24.65;10.02;;;7.30;99.90;;;;;;5035400;28;20030;-68
2023/10/25 01:37:57;;;;;;;30.20;12.98;;;7.20;99.90;;;;;;5035497;28;20052;-68
2023/10/25 01:40:22;;;;;;;17.23;10.38;;;7.20;99.90;;;;;;5035705;28;20087;-68
2023/10/25 01:42:51;;;;;;;29.60;11.13;;;7.20;99.90;;;;;;5035258;28;20021;-68
2023/10/25 01:45:17;;;;;;;15.55;10.05;;;7.20;99.90;;;;;;5035101;28;20091;-69
2023/10/25 01:47:42;;;;;;;14.93;9.48;;;7.10;99.90;;;;;;5035086;28;20033;-68
2023/10/25 01:50:08;;;;;;;17.88;9.70;;;7.10;99.90;;;;;;5035472;28;20037;-68
2023/10/25 01:52:34;;;;;;;16.38;10.02;;;7.00;99.90;;;;;;5034729;28;20022;-68
2023/10/25 01:54:59;;;;;;;18.38;9.10;;;7.00;99.90;;;;;;5035204;28;20464;-69
2023/10/25 01:57:25;;;;;;;14.20;8.02;;;6.90;99.90;;;;;;5034771;28;20041;-68
2023/10/25 01:59:51;;;;;;;15.85;8.73;;;6.90;99.90;;;;;;5034922;28;20430;-68
2023/10/25 02:02:16;;;;;;;14.15;9.10;;;6.90;99.90;;;;;;5034816;28;20032;-68
2023/10/25 02:04:42;;;;;;;15.13;8.93;;;6.80;99.90;;;;;;5034686;28;20060;-68
2023/10/25 02:07:07;;;;;;;18.70;8.70;;;6.80;99.90;;;;;;5034056;28;20099;-68
2023/10/25 02:09:33;;;;;;;13.55;7.95;;;6.90;99.90;;;;;;5034909;28;20112;-68
2023/10/25 02:11:58;;;;;;;15.75;8.35;;;6.80;99.90;;;;;;5035033;28;20171;-68
2023/10/25 02:14:24;;;;;;;16.98;8.85;;;6.80;99.90;;;;;;5034603;28;20100;-68
2023/10/25 02:16:50;;;;;;;13.25;8.70;;;6.90;99.90;;;;;;5034374;28;20475;-68
2023/10/25 02:19:16;;;;;;;16.35;8.35;;;6.80;99.90;;;;;;5034335;28;20040;-68
2023/10/25 02:21:42;;;;;;;19.63;9.60;;;6.80;99.90;;;;;;5034910;28;20115;-68
2023/10/25 02:24:10;;;;;;;15.85;8.60;;;6.80;99.90;;;;;;5034200;28;20033;-68
2023/10/25 02:26:36;;;;;;;17.30;9.75;;;6.80;99.90;;;;;;5034421;28;20038;-68
2023/10/25 02:29:01;;;;;;;19.30;8.60;;;6.80;99.90;;;;;;5034761;28;20033;-68
2023/10/25 02:31:27;;;;;;;12.98;7.65;;;6.80;99.90;;;;;;5034352;28;20096;-68
2023/10/25 02:33:53;;;;;;;11.95;7.70;;;6.80;99.90;;;;;;5034738;28;20026;-68
2023/10/25 02:36:18;;;;;;;13.70;8.15;;;6.70;99.90;;;;;;5034498;28;20033;-68
2023/10/25 02:38:47;;;;;;;16.33;9.82;;;6.70;99.90;;;;;;5033627;28;20029;-69
2023/10/25 02:41:12;;;;;;;17.90;9.73;;;6.70;99.90;;;;;;5034061;28;20025;-68
2023/10/25 02:43:38;;;;;;;18.55;9.88;;;6.80;99.90;;;;;;5033960;28;20075;-68
2023/10/25 02:46:07;;;;;;;24.15;10.98;;;6.90;99.90;;;;;;5034313;28;20033;-68
2023/10/25 02:48:33;;;;;;;19.85;10.85;;;6.90;99.90;;;;;;5033206;28;20018;-68
2023/10/25 02:50:59;;;;;;;18.67;10.02;;;7.10;99.90;;;;;;5034409;28;20033;-68
2023/10/25 02:53:25;;;;;;;21.48;10.35;;;7.10;99.90;;;;;;5034483;28;20371;-68
2023/10/25 02:55:59;;;;;;;18.75;10.55;;;7.00;99.90;;;;;;5034395;28;20025;-68
2023/10/25 02:58:24;;;;;;;16.73;9.18;;;7.00;99.90;;;;;;5033560;28;20033;-68
2023/10/25 03:00:50;;;;;;;18.45;9.15;;;6.90;99.90;;;;;;5033925;28;20033;-68
2023/10/25 03:03:15;;;;;;;16.23;9.50;;;6.80;99.90;;;;;;5033607;28;20095;-68
2023/10/25 03:05:41;;;;;;;19.08;10.05;;;6.70;99.90;;;;;;5034085;28;20029;-68
2023/10/25 03:08:06;;;;;;;22.35;11.38;;;6.70;99.90;;;;;;5033070;28;20056;-68
2023/10/25 03:10:32;;;;;;;22.58;11.45;;;6.70;99.90;;;;;;5034248;28;20029;-68
2023/10/25 03:12:59;;;;;;;24.33;12.23;;;6.80;99.90;;;;;;5033857;28;20368;-68
2023/10/25 03:15:24;;;;;;;30.77;11.65;;;6.80;99.90;;;;;;5034142;28;20029;-69
2023/10/25 03:17:50;;;;;;;26.88;12.50;;;6.90;99.90;;;;;;5033469;28;20032;-68
2023/10/25 03:20:15;;;;;;;22.80;12.38;;;6.90;99.90;;;;;;5033671;28;20029;-68
2023/10/25 03:22:41;;;;;;;22.48;11.90;;;6.90;99.90;;;;;;5033671;28;20033;-68
2023/10/25 03:25:07;;;;;;;22.05;12.60;;;6.70;99.90;;;;;;5033789;28;20499;-68
2023/10/25 03:27:33;;;;;;;22.80;11.60;;;6.80;99.90;;;;;;5033528;28;20104;-68
2023/10/25 03:29:58;;;;;;;21.98;11.80;;;6.90;99.90;;;;;;5033431;28;20026;-68
2023/10/25 03:32:24;;;;;;;26.83;12.52;;;6.70;99.90;;;;;;5033526;28;20028;-68
2023/10/25 03:34:52;;;;;;;21.45;11.27;;;6.70;99.90;;;;;;5033953;28;20040;-68
2023/10/25 03:37:18;;;;;;;18.77;11.45;;;6.60;99.90;;;;;;5033344;28;20030;-68
2023/10/25 03:39:43;;;;;;;27.27;12.85;;;6.60;99.90;;;;;;5033894;28;20371;-68
2023/10/25 03:42:09;;;;;;;23.08;13.48;;;6.70;99.90;;;;;;5033851;28;20099;-68
2023/10/25 03:44:34;;;;;;;25.75;14.10;;;6.70;99.90;;;;;;5033750;28;20451;-68
2023/10/25 03:47:00;;;;;;;20.42;11.55;;;6.70;99.90;;;;;;5033660;28;20025;-69
2023/10/25 03:49:25;;;;;;;26.33;12.07;;;6.60;99.90;;;;;;5034878;28;20025;-68
2023/10/25 03:51:51;;;;;;;21.83;12.68;;;6.60;99.90;;;;;;5037654;28;20030;-68
2023/10/25 03:54:16;;;;;;;19.83;11.90;;;6.60;99.90;;;;;;5036924;28;20022;-68
2023/10/25 03:56:42;;;;;;;20.25;11.65;;;6.60;99.90;;;;;;5037392;28;20456;-69
2023/10/25 03:59:09;;;;;;;20.77;11.30;;;6.50;99.90;;;;;;5037197;28;20026;-68
2023/10/25 04:01:34;;;;;;;17.98;11.02;;;6.50;99.90;;;;;;5036672;28;20086;-68
2023/10/25 04:04:00;;;;;;;19.17;10.95;;;6.40;99.90;;;;;;5036746;28;20041;-69
2023/10/25 04:06:25;;;;;;;19.02;11.43;;;6.40;99.90;;;;;;5036591;28;20041;-69
2023/10/25 04:08:51;;;;;;;16.90;10.93;;;6.40;99.90;;;;;;5037423;28;20041;-69
2023/10/25 04:11:16;;;;;;;25.27;12.13;;;6.40;99.90;;;;;;5037422;28;20037;-68
2023/10/25 04:13:43;;;;;;;28.27;12.30;;;6.40;99.90;;;;;;5036762;28;20033;-69
2023/10/25 04:16:09;;;;;;;22.80;12.38;;;6.30;99.90;;;;;;5036444;28;20071;-69
2023/10/25 04:18:35;;;;;;;24.75;13.38;;;6.30;99.90;;;;;;5037070;28;20504;-72
2023/10/25 04:21:01;;;;;;;28.05;12.82;;;6.40;99.90;;;;;;5036998;28;20472;-68
2023/10/25 04:23:30;;;;;;;27.08;13.85;;;6.50;99.90;;;;;;5036722;28;20047;-68
2023/10/25 04:26:04;;;;;;;25.85;13.23;;;6.50;99.90;;;;;;5036579;28;20475;-68
2023/10/25 04:28:30;;;;;;;28.50;15.00;;;6.60;99.90;;;;;;5036255;28;20143;-69
2023/10/25 04:30:56;;;;;;;35.97;14.95;;;6.60;99.90;;;;;;5036489;28;20061;-68
2023/10/25 04:33:21;;;;;;;31.95;14.60;;;6.70;99.90;;;;;;5035943;28;20032;-69
2023/10/25 04:35:47;;;;;;;31.13;15.73;;;6.70;99.90;;;;;;5036052;28;20022;-68
2023/10/25 04:38:12;;;;;;;30.73;14.57;;;6.70;99.90;;;;;;5036890;28;20116;-69
2023/10/25 04:40:38;;;;;;;36.55;15.68;;;6.70;99.90;;;;;;5036851;28;20088;-68
2023/10/25 04:43:03;;;;;;;23.85;13.68;;;6.70;99.90;;;;;;5036304;28;20052;-68
2023/10/25 04:45:29;;;;;;;33.10;16.58;;;6.60;99.90;;;;;;5036724;28;20033;-69
2023/10/25 04:47:55;;;;;;;33.70;16.90;;;6.70;99.90;;;;;;5037361;28;20611;-69
2023/10/25 04:50:21;;;;;;;35.47;17.45;;;6.80;99.90;;;;;;5049529;28;20036;-69
2023/10/25 04:52:47;;;;;;;34.40;17.30;;;6.80;99.90;;;;;;5040538;28;20025;-69
2023/10/25 04:55:13;;;;;;;34.35;17.30;;;6.90;99.90;;;;;;5054752;28;20033;-69
2023/10/25 04:57:39;;;;;;;33.05;16.77;;;6.80;99.90;;;;;;5051989;28;20032;-69
2023/10/25 05:00:09;;;;;;;43.20;17.73;;;7.00;99.90;;;;;;5053631;28;20395;-69
2023/10/25 05:02:35;;;;;;;24.90;15.65;;;6.90;99.90;;;;;;5046267;28;20033;-69
2023/10/25 05:05:00;;;;;;;36.13;17.35;;;6.80;99.90;;;;;;5054814;28;20026;-69
2023/10/25 05:07:26;;;;;;;30.20;16.23;;;6.90;99.90;;;;;;5054943;28;20041;-69
2023/10/25 05:09:52;;;;;;;34.35;17.17;;;6.90;99.90;;;;;;5055140;28;20421;-69
2023/10/25 05:12:24;;;;;;;32.17;17.27;;;6.90;99.90;;;;;;5055404;28;20029;-69
2023/10/25 05:14:50;;;;;;;39.58;17.73;;;6.90;99.90;;;;;;5055222;28;20029;-69
2023/10/25 05:17:15;;;;;;;33.67;17.83;;;6.90;99.90;;;;;;5055817;28;20032;-69
2023/10/25 05:19:41;;;;;;;39.08;19.08;;;6.80;99.90;;;;;;5055667;28;20036;-69
2023/10/25 05:22:11;;;;;;;35.33;18.70;;;6.80;99.90;;;;;;5055639;28;20029;-69
2023/10/25 05:24:37;;;;;;;42.55;21.83;;;6.90;99.90;;;;;;5055840;28;20059;-69
2023/10/25 05:27:03;;;;;;;39.47;19.38;;;7.00;99.90;;;;;;5055743;28;20060;-69
2023/10/25 05:29:29;;;;;;;33.90;18.17;;;7.00;99.90;;;;;;5055762;28;20029;-69
2023/10/25 05:31:55;;;;;;;41.20;18.25;;;6.90;99.90;;;;;;5055350;28;20021;-69
2023/10/25 05:34:21;;;;;;;38.28;18.23;;;6.90;99.90;;;;;;5055543;28;20028;-69
2023/10/25 05:36:47;;;;;;;36.78;17.85;;;6.90;99.90;;;;;;5055678;28;20029;-68
2023/10/25 05:39:13;;;;;;;43.72;18.52;;;6.90;99.90;;;;;;5055031;28;20029;-69
2023/10/25 05:41:40;;;;;;;42.55;20.02;;;6.90;99.90;;;;;;5055561;28;20108;-69
2023/10/25 05:44:13;;;;;;;38.53;19.77;;;6.90;99.90;;;;;;5055264;28;20028;-68
2023/10/25 05:46:38;;;;;;;33.00;17.40;;;6.90;99.90;;;;;;5054726;28;20073;-68
2023/10/25 05:49:04;;;;;;;35.00;18.02;;;6.80;99.90;;;;;;5054978;28;20154;-69
2023/10/25 05:51:30;;;;;;;38.33;18.95;;;6.70;99.90;;;;;;5054657;28;20475;-69
2023/10/25 05:53:56;;;;;;;38.63;18.85;;;6.80;99.90;;;;;;5055250;28;20079;-69
2023/10/25 05:56:29;;;;;;;37.60;17.75;;;6.80;99.90;;;;;;5054482;28;20032;-69
2023/10/25 05:58:56;;;;;;;38.55;17.73;;;6.80;99.90;;;;;;5055239;28;20028;-68
2023/10/25 06:01:32;;;;;;;39.42;18.75;;;6.70;99.90;;;;;;5054407;28;20035;-68
2023/10/25 06:03:59;;;;;;;38.55;17.13;;;6.70;99.90;;;;;;5055005;28;20031;-69
2023/10/25 06:06:26;;;;;;;37.72;18.63;;;6.70;99.90;;;;;;5054042;28;20072;-69
2023/10/25 06:08:52;;;;;;;43.83;19.45;;;6.70;99.90;;;;;;5054714;28;20040;-69
2023/10/25 06:11:17;;;;;;;37.03;18.08;;;6.80;99.90;;;;;;5053190;28;20036;-69
2023/10/25 06:13:43;;;;;;;40.95;19.60;;;6.90;99.90;;;;;;5044809;28;20029;-69
2023/10/25 06:16:09;;;;;;;41.30;20.75;;;6.90;99.90;;;;;;5046122;28;20037;-68
2023/10/25 06:18:34;;;;;;;38.53;19.92;;;7.10;99.90;;;;;;5034828;28;20052;-69
2023/10/25 06:21:00;;;;;;;44.58;20.33;;;7.20;99.90;;;;;;5045499;28;20029;-68
2023/10/25 06:23:25;;;;;;;38.83;19.48;;;7.20;99.90;;;;;;5036804;28;20491;-69
2023/10/25 06:25:51;;;;;;;44.33;21.17;;;7.20;99.90;;;;;;5034015;28;20446;-69
2023/10/25 06:28:17;;;;;;;40.60;20.38;;;7.30;99.90;;;;;;5048440;28;20037;-68
2023/10/25 06:30:43;;;;;;;42.78;20.50;;;7.40;99.90;;;;;;5051987;28;20032;-70
2023/10/25 06:33:08;;;;;;;38.00;19.85;;;7.50;99.90;;;;;;5054596;28;20036;-69
2023/10/25 06:35:34;;;;;;;37.78;20.63;;;7.60;99.90;;;;;;5040162;28;20025;-69
2023/10/25 06:38:00;;;;;;;37.47;20.20;;;7.70;99.90;;;;;;5034350;28;20064;-69
2023/10/25 06:40:25;;;;;;;43.63;21.60;;;7.80;99.90;;;;;;5041263;28;20029;-69
2023/10/25 06:42:53;;;;;;;43.20;22.17;;;8.00;99.90;;;;;;5034309;28;20120;-69
2023/10/25 06:45:18;;;;;;;47.25;24.13;;;8.70;99.90;;;;;;5033635;28;20025;-69
2023/10/25 06:47:44;;;;;;;42.97;23.83;;;9.50;99.90;;;;;;5052437;28;20051;-69
2023/10/25 06:50:12;;;;;;;37.15;21.67;;;9.90;99.90;;;;;;5052841;28;20503;-70
2023/10/25 06:52:38;;;;;;;37.08;19.83;;;9.70;99.90;;;;;;5040054;28;20116;-69
2023/10/25 06:55:04;;;;;;;29.10;18.33;;;9.30;99.90;;;;;;5033214;28;20018;-69
2023/10/25 06:57:30;;;;;;;34.40;18.45;;;9.00;99.90;;;;;;5042012;28;20029;-69
2023/10/25 06:59:56;;;;;;;36.42;17.77;;;8.80;99.90;;;;;;5053781;28;20025;-69
2023/10/25 07:02:36;;;;;;;34.10;17.92;;;8.70;99.90;;;;;;5037808;28;20037;-70
2023/10/25 07:05:11;;;;;;;31.20;18.40;;;8.70;99.90;;;;;;5034452;28;20031;-70
2023/10/25 07:07:38;;;;;;;29.85;18.33;;;8.70;99.90;;;;;;5051415;28;20498;-69
2023/10/25 07:10:06;;;;;;;38.45;18.40;;;8.70;99.90;;;;;;5052671;28;20439;-69
2023/10/25 07:12:32;;;;;;;33.80;18.98;;;8.70;99.90;;;;;;5053586;28;20071;-69
2023/10/25 07:14:58;;;;;;;35.15;19.10;;;8.70;99.90;;;;;;5051944;28;20056;-69
2023/10/25 07:17:24;;;;;;;29.63;18.23;;;8.70;99.90;;;;;;5053113;28;20037;-70
2023/10/25 07:19:50;;;;;;;31.63;17.08;;;8.70;99.90;;;;;;5052237;28;20033;-70
2023/10/25 07:22:15;;;;;;;32.45;16.40;;;8.70;99.90;;;;;;5032651;28;20124;-70
2023/10/25 07:24:41;;;;;;;28.98;17.02;;;8.80;99.90;;;;;;5036138;28;20057;-69
2023/10/25 07:27:06;;;;;;;28.63;16.92;;;8.80;99.90;;;;;;5050762;28;20032;-69
2023/10/25 07:29:32;;;;;;;27.65;17.33;;;8.90;99.90;;;;;;5057767;28;20033;-69
2023/10/25 07:31:57;;;;;;;32.28;18.42;;;9.00;99.90;;;;;;5057803;28;20021;-70
2023/10/25 07:34:23;;;;;;;28.45;16.50;;;9.10;99.90;;;;;;5057143;28;20475;-70
2023/10/25 07:36:49;;;;;;;28.33;15.32;;;9.30;99.90;;;;;;5044321;28;20040;-70
2023/10/25 07:39:15;;;;;;;24.77;15.63;;;9.40;99.90;;;;;;5037818;28;20037;-70
2023/10/25 07:41:41;;;;;;;25.70;15.73;;;9.40;99.90;;;;;;5037609;28;20021;-70
2023/10/25 07:44:07;;;;;;;25.33;15.15;;;9.50;99.90;;;;;;5046804;28;20364;-70
2023/10/25 07:46:32;;;;;;;24.40;14.98;;;9.50;99.90;;;;;;5057276;28;20051;-70
2023/10/25 07:48:58;;;;;;;23.92;14.75;;;9.70;99.90;;;;;;5057300;28;20029;-70
2023/10/25 07:51:23;;;;;;;26.27;15.18;;;9.90;99.90;;;;;;5051721;28;20022;-71
2023/10/25 07:53:49;;;;;;;18.52;13.93;;;10.50;99.90;;;;;;5057466;28;20033;-71
2023/10/25 07:56:15;;;;;;;23.15;13.73;;;10.60;99.90;;;;;;5045902;28;20024;-71
2023/10/25 07:58:40;;;;;;;27.88;12.90;;;10.80;99.90;;;;;;5038396;28;20090;-70
2023/10/25 08:01:06;;;;;;;17.45;10.93;;;10.90;99.90;;;;;;5055448;28;20474;-71
2023/10/25 08:03:31;;;;;;;14.10;9.15;;;11.20;99.90;;;;;;5053147;28;20040;-71
2023/10/25 08:05:57;;;;;;;16.17;8.10;;;11.50;99.90;;;;;;5053388;28;20025;-71
2023/10/25 08:08:22;;;;;;;13.10;7.20;;;11.40;99.90;;;;;;5038388;28;20048;-70
2023/10/25 08:10:48;;;;;;;8.90;6.50;;;11.20;99.90;;;;;;5039181;28;20098;-69
2023/10/25 08:13:13;;;;;;;9.52;6.68;;;11.30;99.90;;;;;;5036585;28;20033;-71
2023/10/25 08:15:39;;;;;;;10.98;6.20;;;11.10;99.90;;;;;;5036905;28;20026;-71
2023/10/25 08:18:04;;;;;;;10.95;6.10;;;11.00;99.90;;;;;;5036844;28;20544;-72
2023/10/25 08:20:35;;;;;;;12.10;6.15;;;11.00;99.90;;;;;;5037877;28;20168;-72
2023/10/25 08:23:01;;;;;;;7.32;6.28;;;11.40;99.90;;;;;;5036840;28;20506;-72
2023/10/25 08:25:27;;;;;;;8.05;5.45;;;11.90;99.90;;;;;;5053645;28;20041;-72
2023/10/25 08:27:52;;;;;;;8.38;4.60;;;12.50;99.90;;;;;;5055599;28;20022;-70
2023/10/25 08:30:20;;;;;;;7.47;4.10;;;13.40;99.90;;;;;;5052230;28;20033;-71
2023/10/25 08:32:46;;;;;;;6.60;3.38;;;14.50;99.90;;;;;;5050233;28;20026;-73
2023/10/25 08:35:12;;;;;;;8.32;3.88;;;14.60;99.90;;;;;;5049197;28;20128;-71
2023/10/25 08:37:37;;;;;;;10.05;3.58;;;13.90;99.90;;;;;;5053557;28;20048;-70
2023/10/25 08:40:03;;;;;;;9.98;4.22;;;13.10;99.90;;;;;;5037271;28;20039;-71
2023/10/25 08:42:29;;;;;;;5.97;3.88;;;12.90;99.90;;;;;;5036454;28;20029;-71
2023/10/25 08:44:54;;;;;;;10.25;4.13;;;12.70;99.90;;;;;;5036293;28;20033;-70
2023/10/25 08:47:20;;;;;;;7.13;3.67;;;12.60;99.90;;;;;;5036426;28;20349;-70
2023/10/25 08:49:45;;;;;;;5.97;3.85;;;12.70;99.90;;;;;;5037415;28;20123;-71
2023/10/25 08:52:11;;;;;;;4.95;3.58;;;12.60;99.90;;;;;;5045057;28;20111;-71
2023/10/25 08:54:37;;;;;;;8.00;4.03;;;12.80;99.90;;;;;;5054609;28;20125;-71
2023/10/25 08:57:07;;;;;;;6.75;3.50;;;12.80;99.90;;;;;;5036944;28;20033;-71
2023/10/25 08:59:42;;;;;;;8.10;4.00;;;12.90;99.90;;;;;;5036673;28;20033;-72
2023/10/25 09:02:10;;;;;;;6.60;3.95;;;12.80;99.90;;;;;;5047449;28;20037;-72
2023/10/25 09:04:37;;;;;;;6.57;3.22;;;12.60;99.90;;;;;;5044418;28;20056;-71
2023/10/25 09:07:26;;;;;;;7.20;3.70;;;12.50;99.90;;;;;;5054792;28;20132;-71
2023/10/25 09:09:51;;;;;;;6.97;3.58;;;12.50;99.90;;;;;;5056161;28;20371;-71
2023/10/25 09:12:20;;;;;;;7.43;3.30;;;12.30;99.90;;;;;;5056056;28;20029;-71
2023/10/25 09:14:47;;;;;;;6.88;3.08;;;12.40;99.90;;;;;;5055168;28;20025;-72
2023/10/25 09:17:13;;;;;;;8.40;3.03;;;12.30;99.90;;;;;;5053130;28;20079;-71
2023/10/25 09:19:48;;;;;;;5.43;2.60;;;12.40;99.90;;;;;;5042414;28;20041;-71
2023/10/25 09:22:22;;;;;;;5.60;2.88;;;12.40;99.90;;;;;;5038486;28;20032;-70
2023/10/25 09:24:49;;;;;;;3.25;2.13;;;12.50;99.90;;;;;;5035259;28;20037;-70
2023/10/25 09:27:17;;;;;;;6.63;2.60;;;13.10;99.90;;;;;;5035267;28;20124;-72
2023/10/25 09:29:42;;;;;;;3.78;2.00;;;13.60;99.90;;;;;;5035786;28;20013;-72
2023/10/25 09:32:08;;;;;;;3.45;2.17;;;13.80;99.90;;;;;;5038733;28;20387;-73
2023/10/25 09:34:36;;;;;;;4.55;1.90;;;14.10;99.90;;;;;;5053841;28;20029;-73
2023/10/25 09:37:04;;;;;;;9.25;2.28;;;14.30;99.90;;;;;;5054039;28;20033;-72
2023/10/25 09:39:31;;;;;;;2.40;1.77;;;14.80;94.00;;;;;;5044829;28;20502;-71
2023/10/25 09:42:01;;;;;;;3.00;1.90;;;15.20;3.40;;;;;;5055033;28;20021;-72
2023/10/25 09:44:31;;;;;;;6.05;2.42;;;15.40;3.50;;;;;;5055209;28;20021;-72
2023/10/25 09:46:59;;;;;;;7.07;2.15;;;15.40;1.00;;;;;;5053360;28;20119;-70
2023/10/25 09:49:29;;;;;;;3.15;1.88;;;15.50;1.00;;;;;;5055367;28;20025;-70
2023/10/25 09:52:19;;;;;;;8.02;2.53;;;15.40;1.00;;;;;;5054988;28;20117;-62
2023/10/25 09:54:51;;;;;;;5.60;1.95;;;14.50;18.10;;;;;;5061491;28;20025;-62
2023/10/25 09:57:19;;;;;;;6.10;1.80;;;14.50;10.50;;;;;;5041561;28;20075;-63
2023/10/25 09:59:46;;;;;;;5.70;1.90;;;14.40;8.40;;;;;;5034950;28;20024;-62
2023/10/25 10:02:22;;;;;;;7.30;2.08;;;14.30;17.60;;;;;;5047080;28;20037;-63
2023/10/25 10:05:05;;;;;;;3.50;1.55;;;14.70;18.80;;;;;;5040621;28;20029;-63
2023/10/25 10:08:10;;;;;;;4.57;1.90;;;13.90;32.50;;;;;;5039511;28;20554;-64
2023/10/25 10:10:43;;;;;;;5.45;2.33;;;13.80;81.60;;;;;;5038374;28;20032;-63
2023/10/25 10:13:26;;;;;;;5.28;1.90;;;12.50;59.40;;;;;;5049092;28;20399;-63
2023/10/25 10:16:04;;;;;;;6.05;2.40;;;13.80;53.60;;;;;;5033808;28;20052;-63
2023/10/25 10:18:45;;;;;;;6.85;2.33;;;13.90;82.40;;;;;;5043752;28;20416;-62
2023/10/25 10:21:13;;;;;;;8.20;2.20;;;13.00;99.90;;;;;;5040085;28;20036;-64
2023/10/25 10:23:49;;;;;;;5.07;2.22;;;14.00;96.90;;;;;;5034822;28;20032;-63
2023/10/25 10:26:49;;;;;;;6.20;2.35;;;13.90;96.60;;;;;;5052306;28;20055;-63
2023/10/25 10:32:14;;;;;;;8.40;2.55;;;13.60;95.70;;;;;;5091422;28;20295;-62
2023/10/25 10:34:56;;;;;;;7.43;3.00;;;13.50;99.90;;;;;;5087536;28;20494;-62
2023/10/25 10:37:25;;;;;;;7.25;2.83;;;13.60;99.90;;;;;;5088696;28;20077;-62
2023/10/25 10:42:35;;;;;;;4.38;2.20;;;13.50;99.90;;;;;;5111806;27;20376;-70
2023/10/25 10:45:04;;;;;;;4.57;2.33;;;13.60;99.90;;;;;;5104947;28;20028;-67
2023/10/25 10:47:53;;;;;;;6.30;2.53;;;13.40;99.90;;;;;;5091168;28;20478;-68
2023/10/25 10:50:21;;;;;;;6.15;2.80;;;13.50;99.90;;;;;;5090811;28;20077;-70
2023/10/25 10:52:48;;;;;;;9.82;2.53;;;13.60;99.90;;;;;;5105233;28;20421;-71
2023/10/25 10:55:15;;;;;;;10.95;2.75;;;13.70;99.90;;;;;;5100146;28;20028;-71
2023/10/25 10:57:41;;;;;;;5.25;2.53;;;13.90;99.90;;;;;;5109618;28;20115;-70
2023/10/25 11:00:09;;;;;;;6.47;2.60;;;13.90;99.90;;;;;;5097136;28;20107;-70
2023/10/25 11:02:38;;;;;;;4.10;2.20;;;14.10;99.90;;;;;;5108289;28;20386;-66
2023/10/25 11:05:05;;;;;;;8.10;2.22;;;13.80;57.40;;;;;;5099148;28;20481;-67
2023/10/25 11:07:30;;;;;;;3.15;1.35;;;14.00;80.70;;;;;;5099536;28;20056;-67
2023/10/25 11:09:56;;;;;;;6.30;1.90;;;13.90;56.10;;;;;;5090405;28;20486;-67
2023/10/25 11:12:23;;;;;;;6.43;1.50;;;13.90;73.40;;;;;;5092806;28;20044;-69
2023/10/25 11:14:49;;;;;;;5.03;1.75;;;13.90;29.20;;;;;;5094087;28;20032;-69
2023/10/25 11:17:15;;;;;;;7.15;1.85;;;14.00;21.10;;;;;;5094122;28;20043;-70
2023/10/25 11:19:44;;;;;;;6.70;1.90;;;14.10;47.90;;;;;;5110043;28;20024;-68
2023/10/25 11:22:09;;;;;;;4.25;2.00;;;14.00;85.10;;;;;;5110196;28;20076;-69
2023/10/25 11:24:35;;;;;;;4.65;2.33;;;14.10;93.80;;;;;;5114130;28;20032;-69
2023/10/25 11:27:02;;;;;;;6.50;2.40;;;14.00;96.30;;;;;;5119097;28;20496;-69
2023/10/25 11:29:30;;;;;;;4.82;2.22;;;14.10;99.90;;;;;;5105636;28;20032;-70
2023/10/25 11:32:00;;;;;;;6.85;2.55;;;14.00;99.90;;;;;;5089688;28;20071;-69
2023/10/25 11:34:30;;;;;;;3.88;2.50;;;14.10;99.90;;;;;;5090119;28;20056;-68
2023/10/25 11:36:56;;;;;;;7.00;2.30;;;13.80;99.90;;;;;;5089464;28;20020;-69
2023/10/25 11:39:21;;;;;;;4.40;2.10;;;14.20;99.90;;;;;;5092915;28;20085;-69
2023/10/25 11:41:47;;;;;;;4.55;2.30;;;14.10;95.00;;;;;;5108707;28;20054;-67
2023/10/25 11:44:12;;;;;;;7.00;3.13;;;14.00;99.90;;;;;;5103309;28;20028;-71
2023/10/25 11:46:40;;;;;;;7.43;2.40;;;14.10;99.90;;;;;;5107229;28;20032;-71
2023/10/25 11:49:06;;;;;;;7.85;2.45;;;14.10;99.90;;;;;;5110501;28;20055;-70
2023/10/25 11:51:34;;;;;;;4.47;2.75;;;14.10;96.80;;;;;;5110766;28;20539;-69
2023/10/25 11:54:01;;;;;;;6.30;2.53;;;14.10;99.90;;;;;;5091313;28;20056;-70
2023/10/25 11:56:27;;;;;;;6.75;2.00;;;14.00;99.90;;;;;;5096071;28;20522;-70
2023/10/25 11:58:52;;;;;;;5.03;2.45;;;13.90;99.90;;;;;;5076592;28;20032;-70
2023/10/25 12:01:18;;;;;;;6.80;2.42;;;13.70;99.90;;;;;;5076703;28;20078;-70
2023/10/25 12:03:44;;;;;;;5.15;2.10;;;13.60;99.90;;;;;;5092604;28;20066;-70
2023/10/25 12:06:11;;;;;;;4.95;2.17;;;13.30;98.60;;;;;;5096154;28;20020;-70
2023/10/25 12:08:38;;;;;;;4.20;2.03;;;13.20;99.90;;;;;;5093391;28;20032;-70
2023/10/25 12:11:04;;;;;;;4.85;2.38;;;13.10;99.90;;;;;;5076322;28;20028;-71
2023/10/25 12:13:30;;;;;;;3.22;2.10;;;12.90;99.90;;;;;;5074420;28;20036;-71
2023/10/25 12:15:55;;;;;;;7.45;2.95;;;12.80;99.90;;;;;;5084426;28;20024;-70
2023/10/25 12:18:21;;;;;;;5.30;2.13;;;12.70;99.90;;;;;;5093835;28;20035;-72
2023/10/25 12:20:46;;;;;;;4.47;2.33;;;12.60;99.90;;;;;;5082351;28;20032;-73
2023/10/25 12:23:12;;;;;;;6.22;2.40;;;12.50;99.90;;;;;;5083227;28;20115;-71
2023/10/25 12:25:37;;;;;;;3.60;2.40;;;12.40;99.90;;;;;;5076283;28;20031;-71
2023/10/25 12:28:04;;;;;;;6.30;2.80;;;12.20;99.90;;;;;;5076456;28;20039;-70
2023/10/25 12:30:29;;;;;;;7.90;2.95;;;12.00;99.90;;;;;;5075322;28;20074;-71
2023/10/25 12:32:55;;;;;;;7.88;3.80;;;11.80;99.90;;;;;;5094208;28;20393;-69
2023/10/25 12:35:21;;;;;;;6.68;3.55;;;11.70;99.90;;;;;;5095919;28;20028;-68
2023/10/25 12:37:47;;;;;;;7.00;3.88;;;11.50;99.90;;;;;;5095481;28;20519;-73
2023/10/25 12:40:12;;;;;;;10.52;3.95;;;11.40;99.90;;;;;;5095504;28;20032;-71
2023/10/25 12:42:38;;;;;;;8.18;3.70;;;11.20;99.90;;;;;;5086048;28;20031;-68
2023/10/25 12:45:04;;;;;;;7.55;4.20;;;11.20;99.90;;;;;;5074754;28;20032;-69